カーナーク/チューレ空軍基地 の空港の天気 - METARとTAF

チューレ空軍基地 ( BGTL / THU ) - グリーンランド カーナーク
飛行場実況気象(Metar)
観測時間09/24 23:56 ADT (09/25 02:56 UTC)
風向・風速東 3m/s
視程10km以上
天気現象
なし
気温-7.6℃
湿度71%
気圧998.7hPa
METARBGTL 250256Z AUTO 09005KT 9999 CLR M08/M12 A2953 RMK AO2 SLP987 T10761120 52008 TSNO $
過去の天気等 Google飛行場航空写真 Wunderground天気予報

過去48時間のMETAR

飛行場予報(TAF)
データがありません